sensor_id;sensor_type;location;lat;lon;timestamp;P1;durP1;ratioP1;P2;durP2;ratioP2
29202;SDS011;16245;51.170;4.884;2023-04-24T00:02:21;20.50;;;14.00;;
29202;SDS011;16245;51.170;4.884;2023-04-24T00:04:47;22.48;;;15.13;;
29202;SDS011;16245;51.170;4.884;2023-04-24T00:07:13;21.52;;;14.05;;
29202;SDS011;16245;51.170;4.884;2023-04-24T00:09:42;21.77;;;14.63;;
29202;SDS011;16245;51.170;4.884;2023-04-24T00:12:08;21.70;;;15.13;;
29202;SDS011;16245;51.170;4.884;2023-04-24T00:14:35;19.08;;;14.80;;
29202;SDS011;16245;51.170;4.884;2023-04-24T00:17:01;20.35;;;14.40;;
29202;SDS011;16245;51.170;4.884;2023-04-24T00:19:27;22.17;;;14.38;;
29202;SDS011;16245;51.170;4.884;2023-04-24T00:21:53;25.52;;;16.23;;
29202;SDS011;16245;51.170;4.884;2023-04-24T00:24:19;25.60;;;15.95;;
29202;SDS011;16245;51.170;4.884;2023-04-24T00:26:45;26.10;;;16.30;;
29202;SDS011;16245;51.170;4.884;2023-04-24T00:29:11;24.40;;;16.20;;
29202;SDS011;16245;51.170;4.884;2023-04-24T00:31:37;22.70;;;16.90;;
29202;SDS011;16245;51.170;4.884;2023-04-24T00:34:03;27.75;;;16.70;;
29202;SDS011;16245;51.170;4.884;2023-04-24T00:36:29;26.13;;;17.70;;
29202;SDS011;16245;51.170;4.884;2023-04-24T00:38:56;26.98;;;17.27;;
29202;SDS011;16245;51.170;4.884;2023-04-24T00:41:22;23.10;;;17.40;;
29202;SDS011;16245;51.170;4.884;2023-04-24T00:43:49;23.42;;;16.60;;
29202;SDS011;16245;51.170;4.884;2023-04-24T00:46:16;27.58;;;17.33;;
29202;SDS011;16245;51.170;4.884;2023-04-24T00:48:42;27.80;;;17.98;;
29202;SDS011;16245;51.170;4.884;2023-04-24T00:51:08;27.35;;;17.63;;
29202;SDS011;16245;51.170;4.884;2023-04-24T00:53:34;32.10;;;18.92;;
29202;SDS011;16245;51.170;4.884;2023-04-24T00:56:00;27.83;;;17.88;;
29202;SDS011;16245;51.170;4.884;2023-04-24T00:58:26;28.00;;;18.88;;
29202;SDS011;16245;51.170;4.884;2023-04-24T01:00:53;27.10;;;17.85;;
29202;SDS011;16245;51.170;4.884;2023-04-24T01:03:20;28.42;;;17.92;;
29202;SDS011;16245;51.170;4.884;2023-04-24T01:05:49;27.45;;;18.30;;
29202;SDS011;16245;51.170;4.884;2023-04-24T01:08:15;29.13;;;17.58;;
29202;SDS011;16245;51.170;4.884;2023-04-24T01:10:41;30.45;;;17.50;;
29202;SDS011;16245;51.170;4.884;2023-04-24T01:13:09;26.65;;;18.45;;
29202;SDS011;16245;51.170;4.884;2023-04-24T01:15:35;26.23;;;18.15;;
29202;SDS011;16245;51.170;4.884;2023-04-24T01:18:01;24.98;;;18.60;;
29202;SDS011;16245;51.170;4.884;2023-04-24T01:20:27;24.20;;;17.52;;
29202;SDS011;16245;51.170;4.884;2023-04-24T01:22:56;25.83;;;18.17;;
29202;SDS011;16245;51.170;4.884;2023-04-24T01:25:22;28.48;;;18.20;;
29202;SDS011;16245;51.170;4.884;2023-04-24T01:27:49;24.83;;;18.08;;
29202;SDS011;16245;51.170;4.884;2023-04-24T01:30:16;27.02;;;17.65;;
29202;SDS011;16245;51.170;4.884;2023-04-24T01:32:42;22.60;;;18.45;;
29202;SDS011;16245;51.170;4.884;2023-04-24T01:35:09;25.77;;;17.67;;
29202;SDS011;16245;51.170;4.884;2023-04-24T01:37:35;28.60;;;18.50;;
29202;SDS011;16245;51.170;4.884;2023-04-24T01:40:02;27.75;;;18.83;;
29202;SDS011;16245;51.170;4.884;2023-04-24T01:42:31;33.15;;;18.52;;
29202;SDS011;16245;51.170;4.884;2023-04-24T01:44:58;24.08;;;17.45;;
29202;SDS011;16245;51.170;4.884;2023-04-24T01:47:24;28.10;;;18.15;;
29202;SDS011;16245;51.170;4.884;2023-04-24T01:49:50;22.88;;;17.15;;
29202;SDS011;16245;51.170;4.884;2023-04-24T01:52:17;24.80;;;17.83;;
29202;SDS011;16245;51.170;4.884;2023-04-24T01:54:43;25.85;;;17.50;;
29202;SDS011;16245;51.170;4.884;2023-04-24T01:57:09;27.98;;;16.15;;
29202;SDS011;16245;51.170;4.884;2023-04-24T01:59:36;28.42;;;17.65;;
29202;SDS011;16245;51.170;4.884;2023-04-24T02:02:05;26.65;;;17.15;;
29202;SDS011;16245;51.170;4.884;2023-04-24T02:04:30;29.42;;;17.65;;
29202;SDS011;16245;51.170;4.884;2023-04-24T02:06:56;23.20;;;16.42;;
29202;SDS011;16245;51.170;4.884;2023-04-24T02:09:22;27.40;;;16.60;;
29202;SDS011;16245;51.170;4.884;2023-04-24T02:11:48;22.27;;;16.13;;
29202;SDS011;16245;51.170;4.884;2023-04-24T02:14:13;21.05;;;16.27;;
29202;SDS011;16245;51.170;4.884;2023-04-24T02:16:39;25.85;;;15.73;;
29202;SDS011;16245;51.170;4.884;2023-04-24T02:19:05;21.08;;;15.45;;
29202;SDS011;16245;51.170;4.884;2023-04-24T02:21:30;24.02;;;16.20;;
29202;SDS011;16245;51.170;4.884;2023-04-24T02:23:57;20.13;;;15.23;;
29202;SDS011;16245;51.170;4.884;2023-04-24T02:26:22;23.38;;;15.65;;
29202;SDS011;16245;51.170;4.884;2023-04-24T02:28:48;17.60;;;14.80;;
29202;SDS011;16245;51.170;4.884;2023-04-24T02:31:14;28.10;;;15.25;;
29202;SDS011;16245;51.170;4.884;2023-04-24T02:33:40;23.00;;;14.95;;
29202;SDS011;16245;51.170;4.884;2023-04-24T02:36:06;21.55;;;14.05;;
29202;SDS011;16245;51.170;4.884;2023-04-24T02:38:31;18.75;;;14.68;;
29202;SDS011;16245;51.170;4.884;2023-04-24T02:40:57;19.85;;;14.85;;
29202;SDS011;16245;51.170;4.884;2023-04-24T02:43:23;22.30;;;14.35;;
29202;SDS011;16245;51.170;4.884;2023-04-24T02:45:48;22.50;;;14.73;;
29202;SDS011;16245;51.170;4.884;2023-04-24T02:48:14;22.60;;;14.20;;
29202;SDS011;16245;51.170;4.884;2023-04-24T02:50:40;24.25;;;15.27;;
29202;SDS011;16245;51.170;4.884;2023-04-24T02:53:06;22.30;;;13.85;;
29202;SDS011;16245;51.170;4.884;2023-04-24T02:55:32;17.65;;;13.32;;
29202;SDS011;16245;51.170;4.884;2023-04-24T02:57:57;19.38;;;13.27;;
29202;SDS011;16245;51.170;4.884;2023-04-24T03:00:23;17.40;;;13.15;;
29202;SDS011;16245;51.170;4.884;2023-04-24T03:02:49;15.52;;;12.73;;
29202;SDS011;16245;51.170;4.884;2023-04-24T03:05:15;17.48;;;12.20;;
29202;SDS011;16245;51.170;4.884;2023-04-24T03:07:41;14.90;;;12.60;;
29202;SDS011;16245;51.170;4.884;2023-04-24T03:10:07;14.60;;;11.23;;
29202;SDS011;16245;51.170;4.884;2023-04-24T03:12:33;16.10;;;11.88;;
29202;SDS011;16245;51.170;4.884;2023-04-24T03:14:58;13.45;;;10.65;;
29202;SDS011;16245;51.170;4.884;2023-04-24T03:17:24;13.10;;;11.13;;
29202;SDS011;16245;51.170;4.884;2023-04-24T03:19:50;12.55;;;10.00;;
29202;SDS011;16245;51.170;4.884;2023-04-24T03:22:16;15.02;;;11.38;;
29202;SDS011;16245;51.170;4.884;2023-04-24T03:24:41;13.45;;;10.60;;
29202;SDS011;16245;51.170;4.884;2023-04-24T03:27:07;15.63;;;11.25;;
29202;SDS011;16245;51.170;4.884;2023-04-24T03:29:33;15.55;;;10.90;;
29202;SDS011;16245;51.170;4.884;2023-04-24T03:31:58;16.25;;;11.50;;
29202;SDS011;16245;51.170;4.884;2023-04-24T03:34:24;16.77;;;11.15;;
29202;SDS011;16245;51.170;4.884;2023-04-24T03:36:50;14.82;;;10.70;;
29202;SDS011;16245;51.170;4.884;2023-04-24T03:39:15;14.18;;;11.23;;
29202;SDS011;16245;51.170;4.884;2023-04-24T03:41:41;14.20;;;11.98;;
29202;SDS011;16245;51.170;4.884;2023-04-24T03:44:07;16.40;;;11.45;;
29202;SDS011;16245;51.170;4.884;2023-04-24T03:46:32;16.05;;;11.57;;
29202;SDS011;16245;51.170;4.884;2023-04-24T03:48:58;14.43;;;11.20;;
29202;SDS011;16245;51.170;4.884;2023-04-24T03:51:24;16.55;;;11.43;;
29202;SDS011;16245;51.170;4.884;2023-04-24T03:53:50;16.88;;;11.82;;
29202;SDS011;16245;51.170;4.884;2023-04-24T03:56:16;17.13;;;12.80;;
29202;SDS011;16245;51.170;4.884;2023-04-24T03:58:42;17.70;;;13.07;;
29202;SDS011;16245;51.170;4.884;2023-04-24T04:01:07;19.33;;;14.10;;
29202;SDS011;16245;51.170;4.884;2023-04-24T04:03:33;18.00;;;12.80;;
29202;SDS011;16245;51.170;4.884;2023-04-24T04:05:59;16.67;;;12.73;;
29202;SDS011;16245;51.170;4.884;2023-04-24T04:08:24;17.10;;;13.00;;
29202;SDS011;16245;51.170;4.884;2023-04-24T04:10:50;17.40;;;12.75;;
29202;SDS011;16245;51.170;4.884;2023-04-24T04:13:16;16.10;;;13.02;;
29202;SDS011;16245;51.170;4.884;2023-04-24T04:15:41;14.68;;;12.38;;
29202;SDS011;16245;51.170;4.884;2023-04-24T04:18:07;13.85;;;12.45;;
29202;SDS011;16245;51.170;4.884;2023-04-24T04:20:33;18.63;;;12.63;;
29202;SDS011;16245;51.170;4.884;2023-04-24T04:22:59;13.25;;;11.85;;
29202;SDS011;16245;51.170;4.884;2023-04-24T04:25:24;12.32;;;11.02;;
29202;SDS011;16245;51.170;4.884;2023-04-24T04:27:50;12.57;;;10.80;;
29202;SDS011;16245;51.170;4.884;2023-04-24T04:30:17;12.82;;;9.98;;
29202;SDS011;16245;51.170;4.884;2023-04-24T04:32:43;11.02;;;9.75;;
29202;SDS011;16245;51.170;4.884;2023-04-24T04:35:09;12.90;;;9.07;;
29202;SDS011;16245;51.170;4.884;2023-04-24T04:37:35;10.80;;;9.23;;
29202;SDS011;16245;51.170;4.884;2023-04-24T04:40:02;10.43;;;8.50;;
29202;SDS011;16245;51.170;4.884;2023-04-24T04:42:37;11.20;;;8.68;;
29202;SDS011;16245;51.170;4.884;2023-04-24T04:45:06;12.95;;;8.23;;
29202;SDS011;16245;51.170;4.884;2023-04-24T04:47:33;10.80;;;7.80;;
29202;SDS011;16245;51.170;4.884;2023-04-24T04:49:59;8.35;;;7.50;;
29202;SDS011;16245;51.170;4.884;2023-04-24T04:52:25;10.82;;;6.95;;
29202;SDS011;16245;51.170;4.884;2023-04-24T04:54:51;9.75;;;6.20;;
29202;SDS011;16245;51.170;4.884;2023-04-24T04:57:17;8.90;;;6.45;;
29202;SDS011;16245;51.170;4.884;2023-04-24T04:59:43;9.02;;;7.35;;
29202;SDS011;16245;51.170;4.884;2023-04-24T05:02:08;8.75;;;6.32;;
29202;SDS011;16245;51.170;4.884;2023-04-24T05:04:34;7.03;;;6.32;;
29202;SDS011;16245;51.170;4.884;2023-04-24T05:07:00;7.32;;;6.55;;
29202;SDS011;16245;51.170;4.884;2023-04-24T05:09:25;10.90;;;6.30;;
29202;SDS011;16245;51.170;4.884;2023-04-24T05:11:52;10.93;;;7.05;;
29202;SDS011;16245;51.170;4.884;2023-04-24T05:14:18;12.85;;;7.63;;
29202;SDS011;16245;51.170;4.884;2023-04-24T05:16:44;10.30;;;8.25;;
29202;SDS011;16245;51.170;4.884;2023-04-24T05:19:10;13.25;;;7.78;;
29202;SDS011;16245;51.170;4.884;2023-04-24T05:21:39;11.60;;;8.80;;
29202;SDS011;16245;51.170;4.884;2023-04-24T05:24:06;10.88;;;8.02;;
29202;SDS011;16245;51.170;4.884;2023-04-24T05:26:32;14.85;;;9.23;;
29202;SDS011;16245;51.170;4.884;2023-04-24T05:28:58;15.15;;;8.95;;
29202;SDS011;16245;51.170;4.884;2023-04-24T05:31:24;14.80;;;8.75;;
29202;SDS011;16245;51.170;4.884;2023-04-24T05:33:50;12.10;;;9.77;;
29202;SDS011;16245;51.170;4.884;2023-04-24T05:36:16;16.92;;;13.00;;
29202;SDS011;16245;51.170;4.884;2023-04-24T05:38:41;15.80;;;11.25;;
29202;SDS011;16245;51.170;4.884;2023-04-24T05:41:07;19.25;;;11.27;;
29202;SDS011;16245;51.170;4.884;2023-04-24T05:43:33;14.48;;;10.80;;
29202;SDS011;16245;51.170;4.884;2023-04-24T05:45:58;18.58;;;12.13;;
29202;SDS011;16245;51.170;4.884;2023-04-24T05:48:24;20.50;;;13.88;;
29202;SDS011;16245;51.170;4.884;2023-04-24T05:50:50;17.70;;;13.27;;
29202;SDS011;16245;51.170;4.884;2023-04-24T05:53:17;18.70;;;12.23;;
29202;SDS011;16245;51.170;4.884;2023-04-24T05:55:43;21.60;;;14.35;;
29202;SDS011;16245;51.170;4.884;2023-04-24T05:58:09;19.77;;;13.07;;
29202;SDS011;16245;51.170;4.884;2023-04-24T06:00:35;21.02;;;13.02;;
29202;SDS011;16245;51.170;4.884;2023-04-24T06:03:01;22.65;;;14.10;;
29202;SDS011;16245;51.170;4.884;2023-04-24T06:05:28;17.00;;;12.10;;
29202;SDS011;16245;51.170;4.884;2023-04-24T06:07:55;19.02;;;10.82;;
29202;SDS011;16245;51.170;4.884;2023-04-24T06:10:20;17.95;;;11.02;;
29202;SDS011;16245;51.170;4.884;2023-04-24T06:12:46;24.65;;;11.15;;
29202;SDS011;16245;51.170;4.884;2023-04-24T06:15:12;11.88;;;8.80;;
29202;SDS011;16245;51.170;4.884;2023-04-24T06:17:38;13.90;;;8.25;;
29202;SDS011;16245;51.170;4.884;2023-04-24T06:20:03;14.23;;;8.13;;
29202;SDS011;16245;51.170;4.884;2023-04-24T06:22:31;12.85;;;8.48;;
29202;SDS011;16245;51.170;4.884;2023-04-24T06:24:56;18.58;;;12.45;;
29202;SDS011;16245;51.170;4.884;2023-04-24T06:27:22;21.33;;;13.10;;
29202;SDS011;16245;51.170;4.884;2023-04-24T06:29:48;33.53;;;18.15;;
29202;SDS011;16245;51.170;4.884;2023-04-24T06:32:20;16.95;;;10.02;;
29202;SDS011;16245;51.170;4.884;2023-04-24T06:34:50;19.35;;;12.93;;
29202;SDS011;16245;51.170;4.884;2023-04-24T06:37:17;12.48;;;7.90;;
29202;SDS011;16245;51.170;4.884;2023-04-24T06:39:43;31.42;;;19.35;;
29202;SDS011;16245;51.170;4.884;2023-04-24T06:42:09;19.52;;;12.48;;
29202;SDS011;16245;51.170;4.884;2023-04-24T06:44:35;16.77;;;9.85;;
29202;SDS011;16245;51.170;4.884;2023-04-24T06:47:05;13.75;;;7.57;;
29202;SDS011;16245;51.170;4.884;2023-04-24T06:49:33;16.67;;;8.23;;
29202;SDS011;16245;51.170;4.884;2023-04-24T06:51:59;14.70;;;9.00;;
29202;SDS011;16245;51.170;4.884;2023-04-24T06:54:25;13.27;;;8.60;;
29202;SDS011;16245;51.170;4.884;2023-04-24T06:56:50;15.02;;;9.05;;
29202;SDS011;16245;51.170;4.884;2023-04-24T06:59:17;12.52;;;9.07;;
29202;SDS011;16245;51.170;4.884;2023-04-24T07:01:42;13.05;;;8.57;;
29202;SDS011;16245;51.170;4.884;2023-04-24T07:04:08;15.05;;;9.40;;
29202;SDS011;16245;51.170;4.884;2023-04-24T07:06:34;11.70;;;8.10;;
29202;SDS011;16245;51.170;4.884;2023-04-24T07:09:01;11.68;;;7.88;;
29202;SDS011;16245;51.170;4.884;2023-04-24T07:11:28;11.35;;;7.97;;
29202;SDS011;16245;51.170;4.884;2023-04-24T07:13:54;10.43;;;6.97;;
29202;SDS011;16245;51.170;4.884;2023-04-24T07:16:20;10.15;;;6.40;;
29202;SDS011;16245;51.170;4.884;2023-04-24T07:18:46;13.95;;;6.78;;
29202;SDS011;16245;51.170;4.884;2023-04-24T07:21:12;10.65;;;7.47;;
29202;SDS011;16245;51.170;4.884;2023-04-24T07:23:37;15.23;;;8.30;;
29202;SDS011;16245;51.170;4.884;2023-04-24T07:26:03;10.13;;;7.72;;
29202;SDS011;16245;51.170;4.884;2023-04-24T07:28:29;13.75;;;7.85;;
29202;SDS011;16245;51.170;4.884;2023-04-24T07:30:57;14.50;;;8.70;;
29202;SDS011;16245;51.170;4.884;2023-04-24T07:33:24;9.82;;;8.10;;
29202;SDS011;16245;51.170;4.884;2023-04-24T07:35:51;11.93;;;7.15;;
29202;SDS011;16245;51.170;4.884;2023-04-24T07:38:17;11.55;;;8.60;;
29202;SDS011;16245;51.170;4.884;2023-04-24T07:40:46;17.25;;;12.23;;
29202;SDS011;16245;51.170;4.884;2023-04-24T07:43:12;18.02;;;10.32;;
29202;SDS011;16245;51.170;4.884;2023-04-24T07:45:37;20.75;;;12.15;;
29202;SDS011;16245;51.170;4.884;2023-04-24T07:48:04;19.70;;;11.55;;
29202;SDS011;16245;51.170;4.884;2023-04-24T07:50:30;20.17;;;8.52;;
29202;SDS011;16245;51.170;4.884;2023-04-24T07:52:57;14.02;;;7.95;;
29202;SDS011;16245;51.170;4.884;2023-04-24T07:55:22;17.02;;;6.60;;
29202;SDS011;16245;51.170;4.884;2023-04-24T07:57:48;17.50;;;5.65;;
29202;SDS011;16245;51.170;4.884;2023-04-24T08:00:14;18.17;;;6.07;;
29202;SDS011;16245;51.170;4.884;2023-04-24T08:02:40;10.05;;;4.88;;
29202;SDS011;16245;51.170;4.884;2023-04-24T08:05:06;15.02;;;5.30;;
29202;SDS011;16245;51.170;4.884;2023-04-24T08:07:32;12.93;;;5.45;;
29202;SDS011;16245;51.170;4.884;2023-04-24T08:09:58;12.65;;;6.20;;
29202;SDS011;16245;51.170;4.884;2023-04-24T08:12:24;13.30;;;5.60;;
29202;SDS011;16245;51.170;4.884;2023-04-24T08:14:50;16.13;;;5.95;;
29202;SDS011;16245;51.170;4.884;2023-04-24T08:17:16;14.65;;;5.57;;
29202;SDS011;16245;51.170;4.884;2023-04-24T08:19:42;14.93;;;6.10;;
29202;SDS011;16245;51.170;4.884;2023-04-24T08:22:12;13.50;;;6.00;;
29202;SDS011;16245;51.170;4.884;2023-04-24T08:24:39;16.25;;;5.30;;
29202;SDS011;16245;51.170;4.884;2023-04-24T08:27:05;14.40;;;5.60;;
29202;SDS011;16245;51.170;4.884;2023-04-24T08:29:30;10.02;;;5.53;;
29202;SDS011;16245;51.170;4.884;2023-04-24T08:31:56;12.38;;;4.40;;
29202;SDS011;16245;51.170;4.884;2023-04-24T08:34:22;13.02;;;4.90;;
29202;SDS011;16245;51.170;4.884;2023-04-24T08:36:48;19.48;;;8.13;;
29202;SDS011;16245;51.170;4.884;2023-04-24T08:39:14;18.27;;;8.15;;
29202;SDS011;16245;51.170;4.884;2023-04-24T08:41:41;20.52;;;10.15;;
29202;SDS011;16245;51.170;4.884;2023-04-24T08:44:11;20.05;;;7.50;;
29202;SDS011;16245;51.170;4.884;2023-04-24T08:46:39;16.10;;;6.65;;
29202;SDS011;16245;51.170;4.884;2023-04-24T08:49:05;21.48;;;6.03;;
29202;SDS011;16245;51.170;4.884;2023-04-24T08:51:31;19.98;;;10.13;;
29202;SDS011;16245;51.170;4.884;2023-04-24T08:53:57;32.92;;;17.30;;
29202;SDS011;16245;51.170;4.884;2023-04-24T08:56:23;15.07;;;6.50;;
29202;SDS011;16245;51.170;4.884;2023-04-24T08:58:50;13.98;;;5.47;;
29202;SDS011;16245;51.170;4.884;2023-04-24T09:01:18;15.98;;;5.82;;
29202;SDS011;16245;51.170;4.884;2023-04-24T09:03:45;16.70;;;5.22;;
29202;SDS011;16245;51.170;4.884;2023-04-24T09:06:13;17.05;;;5.03;;
29202;SDS011;16245;51.170;4.884;2023-04-24T09:08:41;14.65;;;4.82;;
29202;SDS011;16245;51.170;4.884;2023-04-24T09:11:08;15.13;;;5.57;;
29202;SDS011;16245;51.170;4.884;2023-04-24T09:13:35;16.83;;;5.47;;
29202;SDS011;16245;51.170;4.884;2023-04-24T09:16:01;22.33;;;5.50;;
29202;SDS011;16245;51.170;4.884;2023-04-24T09:18:26;17.65;;;5.70;;
29202;SDS011;16245;51.170;4.884;2023-04-24T09:20:59;22.25;;;5.95;;
29202;SDS011;16245;51.170;4.884;2023-04-24T09:23:29;16.50;;;4.93;;
29202;SDS011;16245;51.170;4.884;2023-04-24T09:25:56;13.75;;;5.38;;
29202;SDS011;16245;51.170;4.884;2023-04-24T09:28:25;18.00;;;5.20;;
29202;SDS011;16245;51.170;4.884;2023-04-24T09:31:13;22.30;;;5.88;;
29202;SDS011;16245;51.170;4.884;2023-04-24T09:34:02;22.27;;;5.90;;
29202;SDS011;16245;51.170;4.884;2023-04-24T09:36:31;14.65;;;6.28;;
29202;SDS011;16245;51.170;4.884;2023-04-24T09:38:59;20.92;;;6.07;;
29202;SDS011;16245;51.170;4.884;2023-04-24T09:41:26;17.25;;;5.68;;
29202;SDS011;16245;51.170;4.884;2023-04-24T09:43:53;13.80;;;5.03;;
29202;SDS011;16245;51.170;4.884;2023-04-24T09:46:20;17.42;;;5.30;;
29202;SDS011;16245;51.170;4.884;2023-04-24T09:48:47;10.40;;;4.03;;
29202;SDS011;16245;51.170;4.884;2023-04-24T09:51:13;11.75;;;4.82;;
29202;SDS011;16245;51.170;4.884;2023-04-24T09:53:44;15.02;;;5.05;;
29202;SDS011;16245;51.170;4.884;2023-04-24T09:56:11;14.98;;;4.57;;
29202;SDS011;16245;51.170;4.884;2023-04-24T09:58:40;20.70;;;8.02;;
29202;SDS011;16245;51.170;4.884;2023-04-24T10:01:05;13.93;;;5.03;;
29202;SDS011;16245;51.170;4.884;2023-04-24T10:03:32;10.55;;;4.18;;
29202;SDS011;16245;51.170;4.884;2023-04-24T10:05:59;17.80;;;4.93;;
29202;SDS011;16245;51.170;4.884;2023-04-24T10:08:25;18.40;;;7.80;;
29202;SDS011;16245;51.170;4.884;2023-04-24T10:10:51;13.13;;;3.90;;
29202;SDS011;16245;51.170;4.884;2023-04-24T10:13:17;13.30;;;3.92;;
29202;SDS011;16245;51.170;4.884;2023-04-24T10:15:43;10.25;;;3.88;;
29202;SDS011;16245;51.170;4.884;2023-04-24T10:18:09;11.70;;;3.58;;
29202;SDS011;16245;51.170;4.884;2023-04-24T10:20:36;14.90;;;3.53;;
29202;SDS011;16245;51.170;4.884;2023-04-24T10:23:03;11.00;;;3.60;;
29202;SDS011;16245;51.170;4.884;2023-04-24T10:25:30;6.78;;;3.88;;
29202;SDS011;16245;51.170;4.884;2023-04-24T10:27:57;9.70;;;3.67;;
29202;SDS011;16245;51.170;4.884;2023-04-24T10:30:27;10.07;;;3.00;;
29202;SDS011;16245;51.170;4.884;2023-04-24T10:32:54;7.65;;;3.00;;
29202;SDS011;16245;51.170;4.884;2023-04-24T10:35:20;12.52;;;3.58;;
29202;SDS011;16245;51.170;4.884;2023-04-24T10:37:50;16.42;;;3.65;;
29202;SDS011;16245;51.170;4.884;2023-04-24T10:40:26;14.43;;;3.65;;
29202;SDS011;16245;51.170;4.884;2023-04-24T10:42:54;10.38;;;3.60;;
29202;SDS011;16245;51.170;4.884;2023-04-24T10:45:21;12.18;;;3.65;;
29202;SDS011;16245;51.170;4.884;2023-04-24T10:48:04;13.75;;;3.63;;
29202;SDS011;16245;51.170;4.884;2023-04-24T10:50:51;9.05;;;2.88;;
29202;SDS011;16245;51.170;4.884;2023-04-24T10:53:18;5.93;;;2.65;;
29202;SDS011;16245;51.170;4.884;2023-04-24T10:56:07;10.23;;;3.40;;
29202;SDS011;16245;51.170;4.884;2023-04-24T11:01:03;8.73;;;2.20;;
29202;SDS011;16245;51.170;4.884;2023-04-24T11:03:30;8.43;;;2.45;;
29202;SDS011;16245;51.170;4.884;2023-04-24T11:05:58;7.93;;;2.90;;
29202;SDS011;16245;51.170;4.884;2023-04-24T11:08:28;9.15;;;2.55;;
29202;SDS011;16245;51.170;4.884;2023-04-24T11:10:58;9.43;;;2.60;;
29202;SDS011;16245;51.170;4.884;2023-04-24T11:13:24;7.82;;;2.28;;
29202;SDS011;16245;51.170;4.884;2023-04-24T11:18:38;9.57;;;2.88;;
29202;SDS011;16245;51.170;4.884;2023-04-24T11:21:11;10.10;;;3.00;;
29202;SDS011;16245;51.170;4.884;2023-04-24T11:23:38;11.10;;;2.83;;
29202;SDS011;16245;51.170;4.884;2023-04-24T11:26:11;7.78;;;3.55;;
29202;SDS011;16245;51.170;4.884;2023-04-24T11:28:48;6.40;;;3.08;;
29202;SDS011;16245;51.170;4.884;2023-04-24T11:34:05;7.72;;;3.25;;
29202;SDS011;16245;51.170;4.884;2023-04-24T11:36:32;12.80;;;5.72;;
29202;SDS011;16245;51.170;4.884;2023-04-24T11:38:58;8.88;;;3.28;;
29202;SDS011;16245;51.170;4.884;2023-04-24T11:41:24;8.55;;;2.85;;
29202;SDS011;16245;51.170;4.884;2023-04-24T11:43:51;10.65;;;4.95;;
29202;SDS011;16245;51.170;4.884;2023-04-24T11:46:20;10.00;;;5.13;;
29202;SDS011;16245;51.170;4.884;2023-04-24T11:48:46;8.70;;;2.78;;
29202;SDS011;16245;51.170;4.884;2023-04-24T11:51:13;10.13;;;3.58;;
29202;SDS011;16245;51.170;4.884;2023-04-24T11:53:39;8.48;;;2.42;;
29202;SDS011;16245;51.170;4.884;2023-04-24T11:56:05;6.00;;;2.55;;
29202;SDS011;16245;51.170;4.884;2023-04-24T11:58:37;3.90;;;2.13;;
29202;SDS011;16245;51.170;4.884;2023-04-24T12:01:03;5.93;;;2.22;;
29202;SDS011;16245;51.170;4.884;2023-04-24T12:03:30;4.65;;;1.98;;
29202;SDS011;16245;51.170;4.884;2023-04-24T12:06:09;4.25;;;1.55;;
29202;SDS011;16245;51.170;4.884;2023-04-24T12:08:36;5.90;;;2.28;;
29202;SDS011;16245;51.170;4.884;2023-04-24T12:11:02;6.75;;;2.30;;
29202;SDS011;16245;51.170;4.884;2023-04-24T12:13:29;3.67;;;1.77;;
29202;SDS011;16245;51.170;4.884;2023-04-24T12:15:59;4.50;;;2.40;;
29202;SDS011;16245;51.170;4.884;2023-04-24T12:18:26;3.35;;;1.58;;
29202;SDS011;16245;51.170;4.884;2023-04-24T12:20:52;4.75;;;1.70;;
29202;SDS011;16245;51.170;4.884;2023-04-24T12:23:33;3.85;;;1.33;;
29202;SDS011;16245;51.170;4.884;2023-04-24T12:26:03;4.88;;;1.60;;
29202;SDS011;16245;51.170;4.884;2023-04-24T12:28:36;6.55;;;2.20;;
29202;SDS011;16245;51.170;4.884;2023-04-24T12:31:03;8.30;;;2.13;;
29202;SDS011;16245;51.170;4.884;2023-04-24T12:33:32;4.47;;;1.65;;
29202;SDS011;16245;51.170;4.884;2023-04-24T12:35:59;7.65;;;2.25;;
29202;SDS011;16245;51.170;4.884;2023-04-24T12:38:26;4.30;;;2.13;;
29202;SDS011;16245;51.170;4.884;2023-04-24T12:41:01;4.00;;;2.03;;
29202;SDS011;16245;51.170;4.884;2023-04-24T12:43:30;3.28;;;2.25;;
29202;SDS011;16245;51.170;4.884;2023-04-24T12:45:57;7.13;;;2.58;;
29202;SDS011;16245;51.170;4.884;2023-04-24T12:48:24;5.40;;;2.55;;
29202;SDS011;16245;51.170;4.884;2023-04-24T12:50:50;7.22;;;2.15;;
29202;SDS011;16245;51.170;4.884;2023-04-24T12:53:16;5.80;;;2.00;;
29202;SDS011;16245;51.170;4.884;2023-04-24T12:55:41;6.05;;;2.47;;
29202;SDS011;16245;51.170;4.884;2023-04-24T12:58:07;6.05;;;2.80;;
29202;SDS011;16245;51.170;4.884;2023-04-24T13:00:33;6.32;;;3.28;;
29202;SDS011;16245;51.170;4.884;2023-04-24T13:02:59;6.80;;;2.90;;
29202;SDS011;16245;51.170;4.884;2023-04-24T13:05:24;8.48;;;4.45;;
29202;SDS011;16245;51.170;4.884;2023-04-24T13:07:50;8.52;;;4.47;;
29202;SDS011;16245;51.170;4.884;2023-04-24T13:10:16;7.53;;;3.47;;
29202;SDS011;16245;51.170;4.884;2023-04-24T13:12:42;10.18;;;4.50;;
29202;SDS011;16245;51.170;4.884;2023-04-24T13:15:10;3.75;;;2.33;;
29202;SDS011;16245;51.170;4.884;2023-04-24T13:17:36;6.50;;;3.03;;
29202;SDS011;16245;51.170;4.884;2023-04-24T13:20:01;5.47;;;2.38;;
29202;SDS011;16245;51.170;4.884;2023-04-24T13:22:27;7.60;;;4.65;;
29202;SDS011;16245;51.170;4.884;2023-04-24T13:24:53;6.32;;;3.65;;
29202;SDS011;16245;51.170;4.884;2023-04-24T13:27:19;4.93;;;3.30;;
29202;SDS011;16245;51.170;4.884;2023-04-24T13:29:45;3.83;;;2.78;;
29202;SDS011;16245;51.170;4.884;2023-04-24T13:32:11;7.55;;;2.50;;
29202;SDS011;16245;51.170;4.884;2023-04-24T13:34:37;5.38;;;2.67;;
29202;SDS011;16245;51.170;4.884;2023-04-24T13:37:03;4.72;;;2.90;;
29202;SDS011;16245;51.170;4.884;2023-04-24T13:39:32;5.07;;;2.78;;
29202;SDS011;16245;51.170;4.884;2023-04-24T13:41:58;8.10;;;5.40;;
29202;SDS011;16245;51.170;4.884;2023-04-24T13:44:24;9.68;;;4.85;;
29202;SDS011;16245;51.170;4.884;2023-04-24T13:46:51;6.18;;;3.75;;
29202;SDS011;16245;51.170;4.884;2023-04-24T13:49:19;6.07;;;3.67;;
29202;SDS011;16245;51.170;4.884;2023-04-24T13:51:46;5.35;;;3.70;;
29202;SDS011;16245;51.170;4.884;2023-04-24T13:54:12;8.20;;;3.15;;
29202;SDS011;16245;51.170;4.884;2023-04-24T13:56:38;11.00;;;4.85;;
29202;SDS011;16245;51.170;4.884;2023-04-24T13:59:07;7.85;;;4.20;;
29202;SDS011;16245;51.170;4.884;2023-04-24T14:01:33;5.18;;;2.40;;
29202;SDS011;16245;51.170;4.884;2023-04-24T14:03:59;6.90;;;2.50;;
29202;SDS011;16245;51.170;4.884;2023-04-24T14:06:25;6.90;;;3.72;;
29202;SDS011;16245;51.170;4.884;2023-04-24T14:08:51;10.18;;;4.70;;
29202;SDS011;16245;51.170;4.884;2023-04-24T14:11:17;5.35;;;1.90;;
29202;SDS011;16245;51.170;4.884;2023-04-24T14:13:43;4.25;;;2.60;;
29202;SDS011;16245;51.170;4.884;2023-04-24T14:16:10;4.93;;;1.92;;
29202;SDS011;16245;51.170;4.884;2023-04-24T14:18:36;6.28;;;2.63;;
29202;SDS011;16245;51.170;4.884;2023-04-24T14:21:02;5.65;;;2.03;;
29202;SDS011;16245;51.170;4.884;2023-04-24T14:23:28;4.70;;;1.42;;
29202;SDS011;16245;51.170;4.884;2023-04-24T14:25:55;3.17;;;1.20;;
29202;SDS011;16245;51.170;4.884;2023-04-24T14:28:21;3.47;;;1.73;;
29202;SDS011;16245;51.170;4.884;2023-04-24T14:30:47;6.97;;;1.85;;
29202;SDS011;16245;51.170;4.884;2023-04-24T14:33:13;5.43;;;1.90;;
29202;SDS011;16245;51.170;4.884;2023-04-24T14:35:39;6.95;;;1.92;;
29202;SDS011;16245;51.170;4.884;2023-04-24T14:38:07;2.60;;;1.40;;
29202;SDS011;16245;51.170;4.884;2023-04-24T14:40:32;3.20;;;1.73;;